sensor_id;sensor_type;location;lat;lon;timestamp;temperature;humidity
20998;DHT22;10657;51.276;6.390;2023-05-24T00:02:09;11.10;99.90
20998;DHT22;10657;51.276;6.390;2023-05-24T00:04:40;11.10;99.90
20998;DHT22;10657;51.276;6.390;2023-05-24T00:07:07;10.90;99.90
20998;DHT22;10657;51.276;6.390;2023-05-24T00:09:34;11.10;99.90
20998;DHT22;10657;51.276;6.390;2023-05-24T00:12:00;11.10;99.90
20998;DHT22;10657;51.276;6.390;2023-05-24T00:14:27;11.00;99.90
20998;DHT22;10657;51.276;6.390;2023-05-24T00:16:54;11.10;99.90
20998;DHT22;10657;51.276;6.390;2023-05-24T00:19:21;11.30;99.90
20998;DHT22;10657;51.276;6.390;2023-05-24T00:21:48;11.30;99.90
20998;DHT22;10657;51.276;6.390;2023-05-24T00:24:15;11.20;99.90
20998;DHT22;10657;51.276;6.390;2023-05-24T00:26:44;11.20;99.90
20998;DHT22;10657;51.276;6.390;2023-05-24T00:29:11;11.10;99.90
20998;DHT22;10657;51.276;6.390;2023-05-24T00:31:38;11.00;99.90
20998;DHT22;10657;51.276;6.390;2023-05-24T00:34:05;11.00;99.90
20998;DHT22;10657;51.276;6.390;2023-05-24T00:36:32;10.90;99.90
20998;DHT22;10657;51.276;6.390;2023-05-24T00:38:59;11.00;99.90
20998;DHT22;10657;51.276;6.390;2023-05-24T00:41:26;11.00;99.90
20998;DHT22;10657;51.276;6.390;2023-05-24T00:43:53;10.90;99.90
20998;DHT22;10657;51.276;6.390;2023-05-24T00:46:31;10.90;99.90
20998;DHT22;10657;51.276;6.390;2023-05-24T00:48:59;10.90;99.90
20998;DHT22;10657;51.276;6.390;2023-05-24T00:51:26;10.90;99.90
20998;DHT22;10657;51.276;6.390;2023-05-24T00:53:54;10.80;99.90
20998;DHT22;10657;51.276;6.390;2023-05-24T00:56:21;10.90;99.90
20998;DHT22;10657;51.276;6.390;2023-05-24T00:58:50;10.70;99.90
20998;DHT22;10657;51.276;6.390;2023-05-24T01:01:20;10.70;99.90
20998;DHT22;10657;51.276;6.390;2023-05-24T01:03:47;10.70;99.90
20998;DHT22;10657;51.276;6.390;2023-05-24T01:06:14;10.70;99.90
20998;DHT22;10657;51.276;6.390;2023-05-24T01:08:52;10.70;99.90
20998;DHT22;10657;51.276;6.390;2023-05-24T01:14:25;10.70;99.90
20998;DHT22;10657;51.276;6.390;2023-05-24T01:17:03;10.70;99.90
20998;DHT22;10657;51.276;6.390;2023-05-24T01:27:35;10.40;99.90
20998;DHT22;10657;51.276;6.390;2023-05-24T01:30:03;10.40;99.90
20998;DHT22;10657;51.276;6.390;2023-05-24T01:32:30;10.50;99.90
20998;DHT22;10657;51.276;6.390;2023-05-24T01:34:58;10.50;99.90
20998;DHT22;10657;51.276;6.390;2023-05-24T01:37:24;10.50;99.90
20998;DHT22;10657;51.276;6.390;2023-05-24T01:39:51;10.40;99.90
20998;DHT22;10657;51.276;6.390;2023-05-24T01:42:22;10.50;99.90
20998;DHT22;10657;51.276;6.390;2023-05-24T01:50:21;10.40;99.90
20998;DHT22;10657;51.276;6.390;2023-05-24T01:52:51;10.50;99.90
20998;DHT22;10657;51.276;6.390;2023-05-24T01:55:19;10.50;99.90
20998;DHT22;10657;51.276;6.390;2023-05-24T01:57:49;10.40;99.90
20998;DHT22;10657;51.276;6.390;2023-05-24T02:00:18;10.40;99.90
20998;DHT22;10657;51.276;6.390;2023-05-24T02:02:46;10.40;99.90
20998;DHT22;10657;51.276;6.390;2023-05-24T02:05:13;10.40;99.90
20998;DHT22;10657;51.276;6.390;2023-05-24T02:07:40;10.30;99.90
20998;DHT22;10657;51.276;6.390;2023-05-24T02:10:07;10.30;99.90
20998;DHT22;10657;51.276;6.390;2023-05-24T02:12:34;10.30;99.90
20998;DHT22;10657;51.276;6.390;2023-05-24T02:15:01;10.30;99.90
20998;DHT22;10657;51.276;6.390;2023-05-24T02:17:28;10.30;99.90
20998;DHT22;10657;51.276;6.390;2023-05-24T02:19:58;10.30;99.90
20998;DHT22;10657;51.276;6.390;2023-05-24T02:22:26;10.20;99.90
20998;DHT22;10657;51.276;6.390;2023-05-24T02:24:53;10.20;99.90
20998;DHT22;10657;51.276;6.390;2023-05-24T02:27:20;10.00;99.90
20998;DHT22;10657;51.276;6.390;2023-05-24T02:29:47;10.20;99.90
20998;DHT22;10657;51.276;6.390;2023-05-24T02:32:14;10.20;99.90
20998;DHT22;10657;51.276;6.390;2023-05-24T02:34:40;10.10;99.90
20998;DHT22;10657;51.276;6.390;2023-05-24T02:37:08;10.00;99.90
20998;DHT22;10657;51.276;6.390;2023-05-24T02:39:34;10.10;99.90
20998;DHT22;10657;51.276;6.390;2023-05-24T02:42:01;10.10;99.90
20998;DHT22;10657;51.276;6.390;2023-05-24T02:44:30;10.10;99.90
20998;DHT22;10657;51.276;6.390;2023-05-24T02:46:56;9.80;99.90
20998;DHT22;10657;51.276;6.390;2023-05-24T02:49:23;9.50;99.90
20998;DHT22;10657;51.276;6.390;2023-05-24T02:51:50;9.40;99.90
20998;DHT22;10657;51.276;6.390;2023-05-24T02:54:17;9.20;99.90
20998;DHT22;10657;51.276;6.390;2023-05-24T02:56:44;9.40;99.90
20998;DHT22;10657;51.276;6.390;2023-05-24T02:59:10;9.40;99.90
20998;DHT22;10657;51.276;6.390;2023-05-24T03:01:37;9.40;99.90
20998;DHT22;10657;51.276;6.390;2023-05-24T03:04:05;9.50;99.90
20998;DHT22;10657;51.276;6.390;2023-05-24T03:06:32;9.60;99.90
20998;DHT22;10657;51.276;6.390;2023-05-24T03:08:59;9.60;99.90
20998;DHT22;10657;51.276;6.390;2023-05-24T03:11:26;9.60;99.90
20998;DHT22;10657;51.276;6.390;2023-05-24T03:13:53;9.40;99.90
20998;DHT22;10657;51.276;6.390;2023-05-24T03:16:19;9.50;99.90
20998;DHT22;10657;51.276;6.390;2023-05-24T03:18:46;9.70;99.90
20998;DHT22;10657;51.276;6.390;2023-05-24T03:21:16;9.70;99.90
20998;DHT22;10657;51.276;6.390;2023-05-24T03:23:46;9.60;99.90
20998;DHT22;10657;51.276;6.390;2023-05-24T03:26:12;9.20;99.90
20998;DHT22;10657;51.276;6.390;2023-05-24T03:28:39;9.00;99.90
20998;DHT22;10657;51.276;6.390;2023-05-24T03:31:06;9.20;99.90
20998;DHT22;10657;51.276;6.390;2023-05-24T03:33:33;9.30;99.90
20998;DHT22;10657;51.276;6.390;2023-05-24T03:35:59;9.40;99.90
20998;DHT22;10657;51.276;6.390;2023-05-24T03:38:26;9.30;99.90
20998;DHT22;10657;51.276;6.390;2023-05-24T03:40:53;9.30;99.90
20998;DHT22;10657;51.276;6.390;2023-05-24T03:43:20;9.40;99.90
20998;DHT22;10657;51.276;6.390;2023-05-24T03:45:47;9.40;99.90
20998;DHT22;10657;51.276;6.390;2023-05-24T03:48:13;9.40;99.90
20998;DHT22;10657;51.276;6.390;2023-05-24T03:50:41;9.30;99.90
20998;DHT22;10657;51.276;6.390;2023-05-24T03:53:08;9.10;99.90
20998;DHT22;10657;51.276;6.390;2023-05-24T03:55:34;9.30;99.90
20998;DHT22;10657;51.276;6.390;2023-05-24T03:58:01;9.40;99.90
20998;DHT22;10657;51.276;6.390;2023-05-24T04:00:28;9.30;99.90
20998;DHT22;10657;51.276;6.390;2023-05-24T04:02:55;9.30;99.90
20998;DHT22;10657;51.276;6.390;2023-05-24T04:05:21;9.20;99.90
20998;DHT22;10657;51.276;6.390;2023-05-24T04:07:52;9.40;99.90
20998;DHT22;10657;51.276;6.390;2023-05-24T04:10:19;9.40;99.90
20998;DHT22;10657;51.276;6.390;2023-05-24T04:12:45;9.40;99.90
20998;DHT22;10657;51.276;6.390;2023-05-24T04:15:12;9.40;99.90
20998;DHT22;10657;51.276;6.390;2023-05-24T04:17:41;9.40;99.90
20998;DHT22;10657;51.276;6.390;2023-05-24T04:20:12;9.40;99.90
20998;DHT22;10657;51.276;6.390;2023-05-24T04:22:39;9.50;99.90
20998;DHT22;10657;51.276;6.390;2023-05-24T04:25:06;9.50;99.90
20998;DHT22;10657;51.276;6.390;2023-05-24T04:27:35;9.40;99.90
20998;DHT22;10657;51.276;6.390;2023-05-24T04:30:02;9.50;99.90
20998;DHT22;10657;51.276;6.390;2023-05-24T04:32:29;9.20;99.90
20998;DHT22;10657;51.276;6.390;2023-05-24T04:34:56;9.30;99.90
20998;DHT22;10657;51.276;6.390;2023-05-24T04:37:22;9.30;99.90
20998;DHT22;10657;51.276;6.390;2023-05-24T04:39:50;9.30;99.90
20998;DHT22;10657;51.276;6.390;2023-05-24T04:42:17;9.30;99.90
20998;DHT22;10657;51.276;6.390;2023-05-24T04:44:43;9.30;99.90
20998;DHT22;10657;51.276;6.390;2023-05-24T04:47:10;9.30;99.90
20998;DHT22;10657;51.276;6.390;2023-05-24T04:49:38;9.30;99.90
20998;DHT22;10657;51.276;6.390;2023-05-24T04:52:05;9.40;99.90
20998;DHT22;10657;51.276;6.390;2023-05-24T04:54:32;9.30;99.90
20998;DHT22;10657;51.276;6.390;2023-05-24T04:56:59;9.10;99.90
20998;DHT22;10657;51.276;6.390;2023-05-24T04:59:26;9.10;99.90
20998;DHT22;10657;51.276;6.390;2023-05-24T05:01:53;9.30;99.90
20998;DHT22;10657;51.276;6.390;2023-05-24T05:04:20;9.40;99.90
20998;DHT22;10657;51.276;6.390;2023-05-24T05:06:46;9.40;99.90
20998;DHT22;10657;51.276;6.390;2023-05-24T05:09:14;9.40;99.90
20998;DHT22;10657;51.276;6.390;2023-05-24T05:11:41;9.30;99.90
20998;DHT22;10657;51.276;6.390;2023-05-24T05:14:08;9.50;99.90
20998;DHT22;10657;51.276;6.390;2023-05-24T05:16:35;9.50;99.90
20998;DHT22;10657;51.276;6.390;2023-05-24T05:19:03;9.30;99.90
20998;DHT22;10657;51.276;6.390;2023-05-24T05:21:33;9.50;99.90
20998;DHT22;10657;51.276;6.390;2023-05-24T05:24:00;9.60;99.90
20998;DHT22;10657;51.276;6.390;2023-05-24T05:26:27;9.70;99.90
20998;DHT22;10657;51.276;6.390;2023-05-24T05:28:55;9.90;99.90
20998;DHT22;10657;51.276;6.390;2023-05-24T05:31:22;9.90;99.90
20998;DHT22;10657;51.276;6.390;2023-05-24T05:33:49;10.00;99.90
20998;DHT22;10657;51.276;6.390;2023-05-24T05:36:16;10.00;99.90
20998;DHT22;10657;51.276;6.390;2023-05-24T05:38:43;10.00;99.90
20998;DHT22;10657;51.276;6.390;2023-05-24T05:41:10;10.10;99.90
20998;DHT22;10657;51.276;6.390;2023-05-24T05:43:37;10.10;99.90
20998;DHT22;10657;51.276;6.390;2023-05-24T05:46:04;10.00;99.90
20998;DHT22;10657;51.276;6.390;2023-05-24T05:48:31;10.00;99.90
20998;DHT22;10657;51.276;6.390;2023-05-24T05:50:58;10.10;99.90
20998;DHT22;10657;51.276;6.390;2023-05-24T05:53:25;10.30;99.90
20998;DHT22;10657;51.276;6.390;2023-05-24T05:55:51;10.40;99.90
20998;DHT22;10657;51.276;6.390;2023-05-24T05:58:18;10.40;99.90
20998;DHT22;10657;51.276;6.390;2023-05-24T06:00:45;10.40;99.90
20998;DHT22;10657;51.276;6.390;2023-05-24T06:03:11;10.50;99.90
20998;DHT22;10657;51.276;6.390;2023-05-24T06:05:38;10.50;99.90
20998;DHT22;10657;51.276;6.390;2023-05-24T06:08:05;10.40;99.90
20998;DHT22;10657;51.276;6.390;2023-05-24T06:10:31;10.40;99.90
20998;DHT22;10657;51.276;6.390;2023-05-24T06:13:01;10.60;99.90
20998;DHT22;10657;51.276;6.390;2023-05-24T06:15:28;10.70;99.90
20998;DHT22;10657;51.276;6.390;2023-05-24T06:17:54;10.80;99.90
20998;DHT22;10657;51.276;6.390;2023-05-24T06:20:21;10.80;99.90
20998;DHT22;10657;51.276;6.390;2023-05-24T06:22:48;10.70;99.90
20998;DHT22;10657;51.276;6.390;2023-05-24T06:25:16;10.90;99.90
20998;DHT22;10657;51.276;6.390;2023-05-24T06:27:46;10.90;99.90
20998;DHT22;10657;51.276;6.390;2023-05-24T06:30:13;10.90;99.90
20998;DHT22;10657;51.276;6.390;2023-05-24T06:32:39;11.00;99.90
20998;DHT22;10657;51.276;6.390;2023-05-24T06:35:07;11.10;99.90
20998;DHT22;10657;51.276;6.390;2023-05-24T06:37:34;11.10;99.90
20998;DHT22;10657;51.276;6.390;2023-05-24T06:40:01;11.00;99.90
20998;DHT22;10657;51.276;6.390;2023-05-24T06:42:30;11.00;99.90
20998;DHT22;10657;51.276;6.390;2023-05-24T06:44:57;11.00;99.90
20998;DHT22;10657;51.276;6.390;2023-05-24T06:47:23;11.00;99.90
20998;DHT22;10657;51.276;6.390;2023-05-24T06:49:50;11.20;99.90
20998;DHT22;10657;51.276;6.390;2023-05-24T06:52:17;11.30;99.90
20998;DHT22;10657;51.276;6.390;2023-05-24T06:54:44;11.40;99.90
20998;DHT22;10657;51.276;6.390;2023-05-24T06:57:10;11.40;99.90
20998;DHT22;10657;51.276;6.390;2023-05-24T06:59:37;11.50;99.90
20998;DHT22;10657;51.276;6.390;2023-05-24T07:02:04;11.60;99.90
20998;DHT22;10657;51.276;6.390;2023-05-24T07:04:30;11.80;99.90
20998;DHT22;10657;51.276;6.390;2023-05-24T07:06:57;11.70;99.90
20998;DHT22;10657;51.276;6.390;2023-05-24T07:09:24;11.70;99.90
20998;DHT22;10657;51.276;6.390;2023-05-24T07:11:52;11.80;99.90
20998;DHT22;10657;51.276;6.390;2023-05-24T07:14:18;11.90;99.90
20998;DHT22;10657;51.276;6.390;2023-05-24T07:16:45;12.00;99.90
20998;DHT22;10657;51.276;6.390;2023-05-24T07:19:12;11.90;99.90
20998;DHT22;10657;51.276;6.390;2023-05-24T07:21:39;11.70;99.90
20998;DHT22;10657;51.276;6.390;2023-05-24T07:24:06;11.80;99.90
20998;DHT22;10657;51.276;6.390;2023-05-24T07:26:33;11.80;99.90
20998;DHT22;10657;51.276;6.390;2023-05-24T07:29:00;11.80;99.90
20998;DHT22;10657;51.276;6.390;2023-05-24T07:31:26;11.80;99.90
20998;DHT22;10657;51.276;6.390;2023-05-24T07:33:55;11.70;99.90
20998;DHT22;10657;51.276;6.390;2023-05-24T07:36:21;11.90;99.90
20998;DHT22;10657;51.276;6.390;2023-05-24T07:38:50;12.20;99.90
20998;DHT22;10657;51.276;6.390;2023-05-24T07:41:18;12.10;99.90
20998;DHT22;10657;51.276;6.390;2023-05-24T07:43:45;12.10;99.90
20998;DHT22;10657;51.276;6.390;2023-05-24T07:46:11;12.10;99.90
20998;DHT22;10657;51.276;6.390;2023-05-24T07:48:38;12.10;99.90
20998;DHT22;10657;51.276;6.390;2023-05-24T07:51:05;12.00;99.90
20998;DHT22;10657;51.276;6.390;2023-05-24T07:53:32;12.10;99.90
20998;DHT22;10657;51.276;6.390;2023-05-24T07:56:00;12.10;99.90
20998;DHT22;10657;51.276;6.390;2023-05-24T07:58:26;12.20;99.90
20998;DHT22;10657;51.276;6.390;2023-05-24T08:00:53;12.20;99.90
20998;DHT22;10657;51.276;6.390;2023-05-24T08:03:20;12.30;99.90
20998;DHT22;10657;51.276;6.390;2023-05-24T08:05:47;12.20;99.90
20998;DHT22;10657;51.276;6.390;2023-05-24T08:08:14;12.20;99.90
20998;DHT22;10657;51.276;6.390;2023-05-24T08:10:41;12.30;99.90
20998;DHT22;10657;51.276;6.390;2023-05-24T08:13:07;12.20;99.90
20998;DHT22;10657;51.276;6.390;2023-05-24T08:15:34;12.20;99.90
20998;DHT22;10657;51.276;6.390;2023-05-24T08:18:01;12.40;99.90
20998;DHT22;10657;51.276;6.390;2023-05-24T08:20:28;12.60;99.90
20998;DHT22;10657;51.276;6.390;2023-05-24T08:22:55;12.80;99.90
20998;DHT22;10657;51.276;6.390;2023-05-24T08:25:22;12.80;99.90
20998;DHT22;10657;51.276;6.390;2023-05-24T08:27:49;12.90;99.90
20998;DHT22;10657;51.276;6.390;2023-05-24T08:30:17;12.90;99.90
20998;DHT22;10657;51.276;6.390;2023-05-24T08:32:43;12.90;99.90
20998;DHT22;10657;51.276;6.390;2023-05-24T08:35:10;12.90;99.90
20998;DHT22;10657;51.276;6.390;2023-05-24T08:37:47;12.90;99.90
20998;DHT22;10657;51.276;6.390;2023-05-24T08:40:15;12.90;99.90
20998;DHT22;10657;51.276;6.390;2023-05-24T08:42:42;12.70;99.90
20998;DHT22;10657;51.276;6.390;2023-05-24T08:45:11;12.80;99.90
20998;DHT22;10657;51.276;6.390;2023-05-24T08:47:39;13.00;99.90
20998;DHT22;10657;51.276;6.390;2023-05-24T08:50:07;13.10;99.90
20998;DHT22;10657;51.276;6.390;2023-05-24T08:52:34;13.20;99.90
20998;DHT22;10657;51.276;6.390;2023-05-24T08:55:03;13.10;99.90
20998;DHT22;10657;51.276;6.390;2023-05-24T08:57:31;13.10;99.90
20998;DHT22;10657;51.276;6.390;2023-05-24T09:00:00;13.00;99.90
20998;DHT22;10657;51.276;6.390;2023-05-24T09:02:26;13.00;99.90
20998;DHT22;10657;51.276;6.390;2023-05-24T09:04:54;13.00;99.90
20998;DHT22;10657;51.276;6.390;2023-05-24T09:07:21;13.10;99.90
20998;DHT22;10657;51.276;6.390;2023-05-24T09:10:04;13.30;99.90
20998;DHT22;10657;51.276;6.390;2023-05-24T09:12:32;13.30;99.90
20998;DHT22;10657;51.276;6.390;2023-05-24T09:15:06;13.30;99.90
20998;DHT22;10657;51.276;6.390;2023-05-24T09:17:34;13.40;99.90
20998;DHT22;10657;51.276;6.390;2023-05-24T09:20:02;13.60;99.90
20998;DHT22;10657;51.276;6.390;2023-05-24T09:22:33;13.70;99.90
20998;DHT22;10657;51.276;6.390;2023-05-24T09:25:04;13.70;99.90
20998;DHT22;10657;51.276;6.390;2023-05-24T09:27:32;13.50;99.90
20998;DHT22;10657;51.276;6.390;2023-05-24T09:30:01;13.30;99.90
20998;DHT22;10657;51.276;6.390;2023-05-24T09:32:29;13.20;99.90
20998;DHT22;10657;51.276;6.390;2023-05-24T09:34:57;13.20;99.90
20998;DHT22;10657;51.276;6.390;2023-05-24T09:37:25;13.30;99.90
20998;DHT22;10657;51.276;6.390;2023-05-24T09:39:57;13.40;99.90
20998;DHT22;10657;51.276;6.390;2023-05-24T09:42:25;13.30;99.90
20998;DHT22;10657;51.276;6.390;2023-05-24T09:45:06;13.50;99.90
20998;DHT22;10657;51.276;6.390;2023-05-24T09:47:41;13.50;99.90
20998;DHT22;10657;51.276;6.390;2023-05-24T09:50:12;13.50;99.90
20998;DHT22;10657;51.276;6.390;2023-05-24T09:52:39;13.70;99.90
20998;DHT22;10657;51.276;6.390;2023-05-24T09:55:14;13.70;99.90
20998;DHT22;10657;51.276;6.390;2023-05-24T09:57:43;13.70;99.90
20998;DHT22;10657;51.276;6.390;2023-05-24T10:00:10;13.90;99.90
20998;DHT22;10657;51.276;6.390;2023-05-24T10:02:41;13.70;99.90
20998;DHT22;10657;51.276;6.390;2023-05-24T10:05:29;13.70;99.90
20998;DHT22;10657;51.276;6.390;2023-05-24T10:07:59;13.70;99.90
20998;DHT22;10657;51.276;6.390;2023-05-24T10:10:28;13.60;99.90
20998;DHT22;10657;51.276;6.390;2023-05-24T10:12:56;13.60;99.90
20998;DHT22;10657;51.276;6.390;2023-05-24T10:15:24;13.60;99.90
20998;DHT22;10657;51.276;6.390;2023-05-24T10:17:52;13.70;99.90
20998;DHT22;10657;51.276;6.390;2023-05-24T10:20:19;13.60;99.90
20998;DHT22;10657;51.276;6.390;2023-05-24T10:22:51;13.50;99.90
20998;DHT22;10657;51.276;6.390;2023-05-24T10:25:22;13.60;99.90
20998;DHT22;10657;51.276;6.390;2023-05-24T10:27:54;13.60;99.90
20998;DHT22;10657;51.276;6.390;2023-05-24T10:30:35;13.80;99.90
20998;DHT22;10657;51.276;6.390;2023-05-24T10:33:05;14.10;99.90
20998;DHT22;10657;51.276;6.390;2023-05-24T10:35:33;14.20;99.90
20998;DHT22;10657;51.276;6.390;2023-05-24T10:38:06;14.40;99.90
20998;DHT22;10657;51.276;6.390;2023-05-24T10:40:34;14.70;99.90
20998;DHT22;10657;51.276;6.390;2023-05-24T10:43:04;14.80;99.90
20998;DHT22;10657;51.276;6.390;2023-05-24T10:45:36;14.90;99.90
20998;DHT22;10657;51.276;6.390;2023-05-24T10:50:40;15.00;99.90
20998;DHT22;10657;51.276;6.390;2023-05-24T10:53:18;15.20;99.90
20998;DHT22;10657;51.276;6.390;2023-05-24T10:55:59;15.20;99.90
20998;DHT22;10657;51.276;6.390;2023-05-24T10:58:43;15.40;99.90
20998;DHT22;10657;51.276;6.390;2023-05-24T11:01:27;15.10;99.90
20998;DHT22;10657;51.276;6.390;2023-05-24T11:04:14;14.90;99.90
20998;DHT22;10657;51.276;6.390;2023-05-24T11:09:11;14.80;99.90
20998;DHT22;10657;51.276;6.390;2023-05-24T11:11:38;14.90;99.90
20998;DHT22;10657;51.276;6.390;2023-05-24T11:14:05;14.90;99.90
20998;DHT22;10657;51.276;6.390;2023-05-24T11:16:38;15.10;99.90
20998;DHT22;10657;51.276;6.390;2023-05-24T11:21:44;15.30;99.90
20998;DHT22;10657;51.276;6.390;2023-05-24T11:24:11;15.10;99.90
20998;DHT22;10657;51.276;6.390;2023-05-24T11:26:38;15.40;99.90
20998;DHT22;10657;51.276;6.390;2023-05-24T11:29:06;15.60;99.90
20998;DHT22;10657;51.276;6.390;2023-05-24T11:31:33;15.60;99.90
20998;DHT22;10657;51.276;6.390;2023-05-24T11:34:09;15.80;99.90
20998;DHT22;10657;51.276;6.390;2023-05-24T11:36:36;16.10;99.90
20998;DHT22;10657;51.276;6.390;2023-05-24T11:39:06;16.00;99.90
20998;DHT22;10657;51.276;6.390;2023-05-24T11:41:35;16.00;99.90
20998;DHT22;10657;51.276;6.390;2023-05-24T11:44:02;16.10;99.90
20998;DHT22;10657;51.276;6.390;2023-05-24T11:46:30;16.30;99.90
20998;DHT22;10657;51.276;6.390;2023-05-24T11:48:58;16.20;99.90
20998;DHT22;10657;51.276;6.390;2023-05-24T11:51:43;16.40;99.90
20998;DHT22;10657;51.276;6.390;2023-05-24T11:54:10;16.60;99.90
20998;DHT22;10657;51.276;6.390;2023-05-24T11:56:37;16.60;99.90
20998;DHT22;10657;51.276;6.390;2023-05-24T12:01:33;16.60;99.90
20998;DHT22;10657;51.276;6.390;2023-05-24T12:04:00;16.70;99.90
20998;DHT22;10657;51.276;6.390;2023-05-24T12:06:41;16.50;99.90
20998;DHT22;10657;51.276;6.390;2023-05-24T12:09:10;16.40;99.90
20998;DHT22;10657;51.276;6.390;2023-05-24T12:11:40;16.60;99.90
20998;DHT22;10657;51.276;6.390;2023-05-24T12:14:13;16.70;99.90
20998;DHT22;10657;51.276;6.390;2023-05-24T12:16:44;16.50;99.90
20998;DHT22;10657;51.276;6.390;2023-05-24T12:19:22;16.90;99.90
20998;DHT22;10657;51.276;6.390;2023-05-24T12:22:02;16.60;99.90
20998;DHT22;10657;51.276;6.390;2023-05-24T12:24:31;16.20;99.90
20998;DHT22;10657;51.276;6.390;2023-05-24T12:27:02;16.20;99.90
20998;DHT22;10657;51.276;6.390;2023-05-24T12:29:38;16.20;99.90
20998;DHT22;10657;51.276;6.390;2023-05-24T12:32:09;16.20;99.90
20998;DHT22;10657;51.276;6.390;2023-05-24T12:34:41;16.30;99.90
20998;DHT22;10657;51.276;6.390;2023-05-24T12:37:10;16.10;99.90
20998;DHT22;10657;51.276;6.390;2023-05-24T12:39:38;16.20;99.90
20998;DHT22;10657;51.276;6.390;2023-05-24T12:42:05;16.00;99.90
20998;DHT22;10657;51.276;6.390;2023-05-24T12:44:37;16.00;99.90
20998;DHT22;10657;51.276;6.390;2023-05-24T12:47:05;16.30;99.90
20998;DHT22;10657;51.276;6.390;2023-05-24T12:49:33;16.30;99.90
20998;DHT22;10657;51.276;6.390;2023-05-24T12:52:00;16.30;99.90
20998;DHT22;10657;51.276;6.390;2023-05-24T12:54:30;16.50;99.90
20998;DHT22;10657;51.276;6.390;2023-05-24T12:56:57;16.40;99.90
20998;DHT22;10657;51.276;6.390;2023-05-24T12:59:31;16.40;99.90
20998;DHT22;10657;51.276;6.390;2023-05-24T13:01:58;16.60;99.90
20998;DHT22;10657;51.276;6.390;2023-05-24T13:04:25;16.80;99.90
20998;DHT22;10657;51.276;6.390;2023-05-24T13:06:52;16.40;99.90
20998;DHT22;10657;51.276;6.390;2023-05-24T13:09:19;16.40;99.90
20998;DHT22;10657;51.276;6.390;2023-05-24T13:11:51;16.50;99.90
20998;DHT22;10657;51.276;6.390;2023-05-24T13:14:18;16.80;99.90
20998;DHT22;10657;51.276;6.390;2023-05-24T13:16:45;17.10;99.90
20998;DHT22;10657;51.276;6.390;2023-05-24T13:19:13;16.80;99.90
20998;DHT22;10657;51.276;6.390;2023-05-24T13:21:39;16.80;99.90
20998;DHT22;10657;51.276;6.390;2023-05-24T13:24:07;16.70;99.90
20998;DHT22;10657;51.276;6.390;2023-05-24T13:26:34;17.10;99.90
20998;DHT22;10657;51.276;6.390;2023-05-24T13:29:06;17.00;99.90
20998;DHT22;10657;51.276;6.390;2023-05-24T13:31:53;17.00;99.90
20998;DHT22;10657;51.276;6.390;2023-05-24T13:34:20;17.00;99.90
20998;DHT22;10657;51.276;6.390;2023-05-24T13:36:47;17.10;99.90
20998;DHT22;10657;51.276;6.390;2023-05-24T13:39:14;17.10;99.90
20998;DHT22;10657;51.276;6.390;2023-05-24T13:41:42;16.70;99.90
20998;DHT22;10657;51.276;6.390;2023-05-24T13:44:11;16.80;99.90
20998;DHT22;10657;51.276;6.390;2023-05-24T13:46:38;17.00;99.90
20998;DHT22;10657;51.276;6.390;2023-05-24T13:49:05;17.30;99.90
20998;DHT22;10657;51.276;6.390;2023-05-24T13:51:32;17.20;99.90
20998;DHT22;10657;51.276;6.390;2023-05-24T13:53:59;17.00;99.90
20998;DHT22;10657;51.276;6.390;2023-05-24T13:56:27;17.00;99.90
20998;DHT22;10657;51.276;6.390;2023-05-24T13:59:00;16.80;99.90
20998;DHT22;10657;51.276;6.390;2023-05-24T14:01:27;16.90;99.90
20998;DHT22;10657;51.276;6.390;2023-05-24T14:03:54;16.70;99.90
20998;DHT22;10657;51.276;6.390;2023-05-24T14:06:20;17.00;99.90
20998;DHT22;10657;51.276;6.390;2023-05-24T14:08:48;17.00;99.90
20998;DHT22;10657;51.276;6.390;2023-05-24T14:11:14;17.10;99.90
20998;DHT22;10657;51.276;6.390;2023-05-24T14:13:41;17.20;99.90
20998;DHT22;10657;51.276;6.390;2023-05-24T14:16:28;16.90;99.90
20998;DHT22;10657;51.276;6.390;2023-05-24T14:18:55;17.30;99.90
20998;DHT22;10657;51.276;6.390;2023-05-24T14:21:23;17.20;99.90
20998;DHT22;10657;51.276;6.390;2023-05-24T14:23:52;17.50;99.90
20998;DHT22;10657;51.276;6.390;2023-05-24T14:26:18;17.60;99.90
20998;DHT22;10657;51.276;6.390;2023-05-24T14:28:47;17.70;99.90
20998;DHT22;10657;51.276;6.390;2023-05-24T14:31:14;17.90;99.90
20998;DHT22;10657;51.276;6.390;2023-05-24T14:33:41;18.00;99.90
20998;DHT22;10657;51.276;6.390;2023-05-24T14:36:07;17.70;99.90
20998;DHT22;10657;51.276;6.390;2023-05-24T14:38:34;17.90;99.90
20998;DHT22;10657;51.276;6.390;2023-05-24T14:41:01;17.70;99.90
20998;DHT22;10657;51.276;6.390;2023-05-24T14:43:28;17.40;99.90
20998;DHT22;10657;51.276;6.390;2023-05-24T14:45:55;17.30;99.90
20998;DHT22;10657;51.276;6.390;2023-05-24T14:48:21;17.40;99.90
20998;DHT22;10657;51.276;6.390;2023-05-24T14:50:48;17.20;99.90
20998;DHT22;10657;51.276;6.390;2023-05-24T14:53:15;17.40;99.90
20998;DHT22;10657;51.276;6.390;2023-05-24T14:55:42;17.30;99.90
20998;DHT22;10657;51.276;6.390;2023-05-24T14:58:10;17.30;99.90
20998;DHT22;10657;51.276;6.390;2023-05-24T15:00:38;17.30;99.90
20998;DHT22;10657;51.276;6.390;2023-05-24T15:03:04;17.50;99.90
20998;DHT22;10657;51.276;6.390;2023-05-24T15:05:34;17.60;99.90
20998;DHT22;10657;51.276;6.390;2023-05-24T15:08:01;17.60;99.90
20998;DHT22;10657;51.276;6.390;2023-05-24T15:10:27;17.60;99.90
20998;DHT22;10657;51.276;6.390;2023-05-24T15:12:54;18.30;99.90
20998;DHT22;10657;51.276;6.390;2023-05-24T15:15:21;18.90;99.90
20998;DHT22;10657;51.276;6.390;2023-05-24T15:17:48;19.50;99.90
20998;DHT22;10657;51.276;6.390;2023-05-24T15:20:15;19.50;99.90
20998;DHT22;10657;51.276;6.390;2023-05-24T15:22:42;19.10;99.90
20998;DHT22;10657;51.276;6.390;2023-05-24T15:25:09;18.70;99.90
20998;DHT22;10657;51.276;6.390;2023-05-24T15:27:36;18.40;99.90
20998;DHT22;10657;51.276;6.390;2023-05-24T15:30:03;18.20;99.90
20998;DHT22;10657;51.276;6.390;2023-05-24T15:32:30;17.80;99.90
20998;DHT22;10657;51.276;6.390;2023-05-24T15:34:57;17.90;99.90
20998;DHT22;10657;51.276;6.390;2023-05-24T15:37:26;17.70;99.90
20998;DHT22;10657;51.276;6.390;2023-05-24T15:39:53;17.70;99.90
20998;DHT22;10657;51.276;6.390;2023-05-24T15:42:19;17.40;99.90
20998;DHT22;10657;51.276;6.390;2023-05-24T15:44:47;17.40;99.90
20998;DHT22;10657;51.276;6.390;2023-05-24T15:47:14;17.40;99.90
20998;DHT22;10657;51.276;6.390;2023-05-24T15:49:40;17.20;99.90
20998;DHT22;10657;51.276;6.390;2023-05-24T15:52:07;17.20;99.90
20998;DHT22;10657;51.276;6.390;2023-05-24T15:54:35;16.90;99.90
20998;DHT22;10657;51.276;6.390;2023-05-24T15:57:02;16.90;99.90
20998;DHT22;10657;51.276;6.390;2023-05-24T15:59:29;16.90;99.90
20998;DHT22;10657;51.276;6.390;2023-05-24T16:01:56;17.00;99.90
20998;DHT22;10657;51.276;6.390;2023-05-24T16:04:22;16.80;99.90
20998;DHT22;10657;51.276;6.390;2023-05-24T16:06:49;16.90;99.90